sensor_id;sensor_type;location;lat;lon;timestamp;temperature;humidity
48686;DHT22;34485;51.536;3.816;2023-04-03T00:01:09;5.10;99.90
48686;DHT22;34485;51.536;3.816;2023-04-03T00:03:35;5.10;99.90
48686;DHT22;34485;51.536;3.816;2023-04-03T00:06:02;5.00;99.90
48686;DHT22;34485;51.536;3.816;2023-04-03T00:08:28;5.10;99.90
48686;DHT22;34485;51.536;3.816;2023-04-03T00:10:56;5.10;99.90
48686;DHT22;34485;51.536;3.816;2023-04-03T00:13:22;5.10;99.90
48686;DHT22;34485;51.536;3.816;2023-04-03T00:15:48;5.00;99.90
48686;DHT22;34485;51.536;3.816;2023-04-03T00:27:58;4.90;99.90
48686;DHT22;34485;51.536;3.816;2023-04-03T00:30:24;4.90;99.90
48686;DHT22;34485;51.536;3.816;2023-04-03T00:32:51;4.90;99.90
48686;DHT22;34485;51.536;3.816;2023-04-03T00:35:18;4.90;99.90
48686;DHT22;34485;51.536;3.816;2023-04-03T00:37:44;4.80;99.90
48686;DHT22;34485;51.536;3.816;2023-04-03T00:40:13;4.80;99.90
48686;DHT22;34485;51.536;3.816;2023-04-03T00:42:41;4.80;99.90
48686;DHT22;34485;51.536;3.816;2023-04-03T00:47:40;4.70;99.90
48686;DHT22;34485;51.536;3.816;2023-04-03T00:50:07;4.60;99.90
48686;DHT22;34485;51.536;3.816;2023-04-03T00:52:33;4.60;99.90
48686;DHT22;34485;51.536;3.816;2023-04-03T00:55:19;4.60;99.90
48686;DHT22;34485;51.536;3.816;2023-04-03T00:57:45;4.50;99.90
48686;DHT22;34485;51.536;3.816;2023-04-03T01:00:14;4.40;99.90
48686;DHT22;34485;51.536;3.816;2023-04-03T01:02:41;4.40;99.90
48686;DHT22;34485;51.536;3.816;2023-04-03T01:05:07;4.40;99.90
48686;DHT22;34485;51.536;3.816;2023-04-03T01:07:34;4.30;99.90
48686;DHT22;34485;51.536;3.816;2023-04-03T01:10:05;4.30;99.90
48686;DHT22;34485;51.536;3.816;2023-04-03T01:12:37;4.20;99.90
48686;DHT22;34485;51.536;3.816;2023-04-03T01:15:12;4.10;99.90
48686;DHT22;34485;51.536;3.816;2023-04-03T01:25:37;4.10;99.90
48686;DHT22;34485;51.536;3.816;2023-04-03T01:28:04;4.00;99.90
48686;DHT22;34485;51.536;3.816;2023-04-03T01:30:34;4.00;99.90
48686;DHT22;34485;51.536;3.816;2023-04-03T01:33:00;3.90;99.90
48686;DHT22;34485;51.536;3.816;2023-04-03T01:35:26;3.90;99.90
48686;DHT22;34485;51.536;3.816;2023-04-03T01:37:52;3.80;99.90
48686;DHT22;34485;51.536;3.816;2023-04-03T01:40:18;3.80;99.90
48686;DHT22;34485;51.536;3.816;2023-04-03T01:47:36;4.00;99.90
48686;DHT22;34485;51.536;3.816;2023-04-03T01:50:01;3.90;99.90
48686;DHT22;34485;51.536;3.816;2023-04-03T01:52:27;3.90;99.90
48686;DHT22;34485;51.536;3.816;2023-04-03T01:54:52;3.90;99.90
48686;DHT22;34485;51.536;3.816;2023-04-03T01:57:18;3.90;99.90
48686;DHT22;34485;51.536;3.816;2023-04-03T01:59:43;3.90;99.90
48686;DHT22;34485;51.536;3.816;2023-04-03T02:02:09;3.90;99.90
48686;DHT22;34485;51.536;3.816;2023-04-03T02:04:37;3.90;99.90
48686;DHT22;34485;51.536;3.816;2023-04-03T02:07:03;3.80;99.90
48686;DHT22;34485;51.536;3.816;2023-04-03T02:09:29;3.70;99.90
48686;DHT22;34485;51.536;3.816;2023-04-03T02:11:54;3.60;99.90
48686;DHT22;34485;51.536;3.816;2023-04-03T02:14:20;3.60;99.90
48686;DHT22;34485;51.536;3.816;2023-04-03T02:16:47;3.50;99.90
48686;DHT22;34485;51.536;3.816;2023-04-03T02:19:12;3.50;99.90
48686;DHT22;34485;51.536;3.816;2023-04-03T02:21:38;3.40;99.90
48686;DHT22;34485;51.536;3.816;2023-04-03T02:24:04;3.40;99.90
48686;DHT22;34485;51.536;3.816;2023-04-03T02:26:30;3.40;99.90
48686;DHT22;34485;51.536;3.816;2023-04-03T02:28:56;3.30;99.90
48686;DHT22;34485;51.536;3.816;2023-04-03T02:31:22;3.40;99.90
48686;DHT22;34485;51.536;3.816;2023-04-03T02:33:48;3.40;99.90
48686;DHT22;34485;51.536;3.816;2023-04-03T02:36:13;3.50;99.90
48686;DHT22;34485;51.536;3.816;2023-04-03T02:38:39;3.50;99.90
48686;DHT22;34485;51.536;3.816;2023-04-03T02:41:08;3.60;99.90
48686;DHT22;34485;51.536;3.816;2023-04-03T02:43:34;3.60;99.90
48686;DHT22;34485;51.536;3.816;2023-04-03T02:45:59;3.60;99.90
48686;DHT22;34485;51.536;3.816;2023-04-03T02:48:26;3.70;99.90
48686;DHT22;34485;51.536;3.816;2023-04-03T02:50:52;3.70;99.90
48686;DHT22;34485;51.536;3.816;2023-04-03T02:53:18;3.70;99.90
48686;DHT22;34485;51.536;3.816;2023-04-03T02:55:44;3.70;99.90
48686;DHT22;34485;51.536;3.816;2023-04-03T02:58:10;3.70;99.90
48686;DHT22;34485;51.536;3.816;2023-04-03T03:00:36;3.60;99.90
48686;DHT22;34485;51.536;3.816;2023-04-03T03:03:02;3.60;99.90
48686;DHT22;34485;51.536;3.816;2023-04-03T03:05:28;3.60;99.90
48686;DHT22;34485;51.536;3.816;2023-04-03T03:07:54;3.50;99.90
48686;DHT22;34485;51.536;3.816;2023-04-03T03:10:20;3.50;99.90
48686;DHT22;34485;51.536;3.816;2023-04-03T03:12:45;3.50;99.90
48686;DHT22;34485;51.536;3.816;2023-04-03T03:15:11;3.50;99.90
48686;DHT22;34485;51.536;3.816;2023-04-03T03:17:37;3.40;99.90
48686;DHT22;34485;51.536;3.816;2023-04-03T03:20:04;3.40;99.90
48686;DHT22;34485;51.536;3.816;2023-04-03T03:22:30;3.40;99.90
48686;DHT22;34485;51.536;3.816;2023-04-03T03:24:55;3.40;99.90
48686;DHT22;34485;51.536;3.816;2023-04-03T03:27:21;3.40;99.90
48686;DHT22;34485;51.536;3.816;2023-04-03T03:29:47;3.40;99.90
48686;DHT22;34485;51.536;3.816;2023-04-03T03:32:12;3.50;99.90
48686;DHT22;34485;51.536;3.816;2023-04-03T03:34:38;3.60;99.90
48686;DHT22;34485;51.536;3.816;2023-04-03T03:37:04;3.60;99.90
48686;DHT22;34485;51.536;3.816;2023-04-03T03:39:29;3.70;99.90
48686;DHT22;34485;51.536;3.816;2023-04-03T03:41:55;3.70;99.90
48686;DHT22;34485;51.536;3.816;2023-04-03T03:44:21;3.70;99.90
48686;DHT22;34485;51.536;3.816;2023-04-03T03:46:46;3.70;99.90
48686;DHT22;34485;51.536;3.816;2023-04-03T03:49:12;3.70;99.90
48686;DHT22;34485;51.536;3.816;2023-04-03T03:51:38;3.60;99.90
48686;DHT22;34485;51.536;3.816;2023-04-03T03:54:05;3.70;99.90
48686;DHT22;34485;51.536;3.816;2023-04-03T03:56:31;3.60;99.90
48686;DHT22;34485;51.536;3.816;2023-04-03T03:58:57;3.60;99.90
48686;DHT22;34485;51.536;3.816;2023-04-03T04:01:23;3.50;99.90
48686;DHT22;34485;51.536;3.816;2023-04-03T04:03:50;3.50;99.90
48686;DHT22;34485;51.536;3.816;2023-04-03T04:06:16;3.40;99.90
48686;DHT22;34485;51.536;3.816;2023-04-03T04:08:42;3.30;99.90
48686;DHT22;34485;51.536;3.816;2023-04-03T04:11:08;3.20;99.90
48686;DHT22;34485;51.536;3.816;2023-04-03T04:13:34;3.10;99.90
48686;DHT22;34485;51.536;3.816;2023-04-03T04:15:59;3.10;99.90
48686;DHT22;34485;51.536;3.816;2023-04-03T04:18:25;3.20;99.90
48686;DHT22;34485;51.536;3.816;2023-04-03T04:20:51;3.20;99.90
48686;DHT22;34485;51.536;3.816;2023-04-03T04:23:18;3.40;99.90
48686;DHT22;34485;51.536;3.816;2023-04-03T04:25:47;3.40;99.90
48686;DHT22;34485;51.536;3.816;2023-04-03T04:28:13;3.50;99.90
48686;DHT22;34485;51.536;3.816;2023-04-03T04:30:39;3.50;99.90
48686;DHT22;34485;51.536;3.816;2023-04-03T04:33:05;3.50;99.90
48686;DHT22;34485;51.536;3.816;2023-04-03T04:35:32;3.60;99.90
48686;DHT22;34485;51.536;3.816;2023-04-03T04:37:58;3.60;99.90
48686;DHT22;34485;51.536;3.816;2023-04-03T04:40:23;3.70;99.90
48686;DHT22;34485;51.536;3.816;2023-04-03T04:42:49;3.60;99.90
48686;DHT22;34485;51.536;3.816;2023-04-03T04:45:15;3.60;99.90
48686;DHT22;34485;51.536;3.816;2023-04-03T04:47:41;3.50;99.90
48686;DHT22;34485;51.536;3.816;2023-04-03T04:50:07;3.40;99.90
48686;DHT22;34485;51.536;3.816;2023-04-03T04:52:33;3.30;99.90
48686;DHT22;34485;51.536;3.816;2023-04-03T04:54:59;3.30;99.90
48686;DHT22;34485;51.536;3.816;2023-04-03T04:57:25;3.20;99.90
48686;DHT22;34485;51.536;3.816;2023-04-03T04:59:50;3.10;99.90
48686;DHT22;34485;51.536;3.816;2023-04-03T05:02:16;3.10;99.90
48686;DHT22;34485;51.536;3.816;2023-04-03T05:04:41;3.10;99.90
48686;DHT22;34485;51.536;3.816;2023-04-03T05:07:07;3.10;99.90
48686;DHT22;34485;51.536;3.816;2023-04-03T05:09:33;3.20;99.90
48686;DHT22;34485;51.536;3.816;2023-04-03T05:11:58;3.20;99.90
48686;DHT22;34485;51.536;3.816;2023-04-03T05:14:24;3.20;99.90
48686;DHT22;34485;51.536;3.816;2023-04-03T05:16:50;3.10;99.90
48686;DHT22;34485;51.536;3.816;2023-04-03T05:19:22;3.10;99.90
48686;DHT22;34485;51.536;3.816;2023-04-03T05:21:48;3.20;99.90
48686;DHT22;34485;51.536;3.816;2023-04-03T05:24:14;3.20;99.90
48686;DHT22;34485;51.536;3.816;2023-04-03T05:26:41;3.20;99.90
48686;DHT22;34485;51.536;3.816;2023-04-03T05:29:06;3.20;99.90
48686;DHT22;34485;51.536;3.816;2023-04-03T05:31:35;3.10;99.90
48686;DHT22;34485;51.536;3.816;2023-04-03T05:34:01;3.10;99.90
48686;DHT22;34485;51.536;3.816;2023-04-03T05:36:27;3.10;99.90
48686;DHT22;34485;51.536;3.816;2023-04-03T05:38:53;3.20;99.90
48686;DHT22;34485;51.536;3.816;2023-04-03T05:41:19;3.20;99.90
48686;DHT22;34485;51.536;3.816;2023-04-03T05:43:46;3.30;99.90
48686;DHT22;34485;51.536;3.816;2023-04-03T05:46:17;3.30;99.90
48686;DHT22;34485;51.536;3.816;2023-04-03T05:48:43;3.40;99.90
48686;DHT22;34485;51.536;3.816;2023-04-03T05:51:18;3.50;99.90
48686;DHT22;34485;51.536;3.816;2023-04-03T05:53:44;3.50;99.90
48686;DHT22;34485;51.536;3.816;2023-04-03T05:56:11;3.50;99.90
48686;DHT22;34485;51.536;3.816;2023-04-03T05:58:37;3.50;99.90
48686;DHT22;34485;51.536;3.816;2023-04-03T06:01:02;3.60;99.90
48686;DHT22;34485;51.536;3.816;2023-04-03T06:03:28;3.60;99.90
48686;DHT22;34485;51.536;3.816;2023-04-03T06:05:54;3.60;99.90
48686;DHT22;34485;51.536;3.816;2023-04-03T06:08:20;3.70;99.90
48686;DHT22;34485;51.536;3.816;2023-04-03T06:10:45;3.70;99.90
48686;DHT22;34485;51.536;3.816;2023-04-03T06:13:11;3.80;99.90
48686;DHT22;34485;51.536;3.816;2023-04-03T06:15:37;3.80;99.90
48686;DHT22;34485;51.536;3.816;2023-04-03T06:18:05;3.80;99.90
48686;DHT22;34485;51.536;3.816;2023-04-03T06:20:30;3.80;99.90
48686;DHT22;34485;51.536;3.816;2023-04-03T06:22:56;3.90;99.90
48686;DHT22;34485;51.536;3.816;2023-04-03T06:25:22;3.90;99.90
48686;DHT22;34485;51.536;3.816;2023-04-03T06:27:48;4.00;99.90
48686;DHT22;34485;51.536;3.816;2023-04-03T06:30:14;4.00;99.90
48686;DHT22;34485;51.536;3.816;2023-04-03T06:32:39;4.10;99.90
48686;DHT22;34485;51.536;3.816;2023-04-03T06:35:06;4.10;99.90
48686;DHT22;34485;51.536;3.816;2023-04-03T06:37:31;4.20;99.90
48686;DHT22;34485;51.536;3.816;2023-04-03T06:39:58;4.30;99.90
48686;DHT22;34485;51.536;3.816;2023-04-03T06:42:24;4.40;99.90
48686;DHT22;34485;51.536;3.816;2023-04-03T06:44:49;4.40;99.90
48686;DHT22;34485;51.536;3.816;2023-04-03T06:47:16;4.40;99.90
48686;DHT22;34485;51.536;3.816;2023-04-03T06:49:43;4.60;99.90
48686;DHT22;34485;51.536;3.816;2023-04-03T06:52:09;4.60;99.90
48686;DHT22;34485;51.536;3.816;2023-04-03T06:54:37;4.60;99.90
48686;DHT22;34485;51.536;3.816;2023-04-03T06:57:03;4.70;99.90
48686;DHT22;34485;51.536;3.816;2023-04-03T06:59:29;4.80;99.90
48686;DHT22;34485;51.536;3.816;2023-04-03T07:01:55;4.80;99.90
48686;DHT22;34485;51.536;3.816;2023-04-03T07:04:21;4.90;99.90
48686;DHT22;34485;51.536;3.816;2023-04-03T07:06:47;4.90;99.90
48686;DHT22;34485;51.536;3.816;2023-04-03T07:09:13;4.90;99.90
48686;DHT22;34485;51.536;3.816;2023-04-03T07:11:39;4.90;99.90
48686;DHT22;34485;51.536;3.816;2023-04-03T07:14:05;5.00;99.90
48686;DHT22;34485;51.536;3.816;2023-04-03T07:16:33;5.00;99.90
48686;DHT22;34485;51.536;3.816;2023-04-03T07:19:00;5.10;99.90
48686;DHT22;34485;51.536;3.816;2023-04-03T07:23:53;5.60;99.90
48686;DHT22;34485;51.536;3.816;2023-04-03T07:26:19;5.80;99.90
48686;DHT22;34485;51.536;3.816;2023-04-03T07:28:46;6.50;99.90
48686;DHT22;34485;51.536;3.816;2023-04-03T07:31:14;7.00;99.90
48686;DHT22;34485;51.536;3.816;2023-04-03T07:33:41;7.30;99.90
48686;DHT22;34485;51.536;3.816;2023-04-03T07:36:08;7.50;99.90
48686;DHT22;34485;51.536;3.816;2023-04-03T07:38:35;7.70;98.80
48686;DHT22;34485;51.536;3.816;2023-04-03T07:41:01;6.90;99.90
48686;DHT22;34485;51.536;3.816;2023-04-03T07:43:26;6.50;99.90
48686;DHT22;34485;51.536;3.816;2023-04-03T07:45:52;6.40;99.90
48686;DHT22;34485;51.536;3.816;2023-04-03T07:48:21;6.80;99.90
48686;DHT22;34485;51.536;3.816;2023-04-03T07:50:47;7.00;99.90
48686;DHT22;34485;51.536;3.816;2023-04-03T07:53:13;7.00;99.90
48686;DHT22;34485;51.536;3.816;2023-04-03T07:55:39;7.00;99.90
48686;DHT22;34485;51.536;3.816;2023-04-03T07:58:13;7.00;99.90
48686;DHT22;34485;51.536;3.816;2023-04-03T08:00:40;7.10;99.90
48686;DHT22;34485;51.536;3.816;2023-04-03T08:03:08;7.00;99.90
48686;DHT22;34485;51.536;3.816;2023-04-03T08:05:39;7.20;99.90
48686;DHT22;34485;51.536;3.816;2023-04-03T08:08:06;7.70;99.90
48686;DHT22;34485;51.536;3.816;2023-04-03T08:12:59;8.60;96.90
48686;DHT22;34485;51.536;3.816;2023-04-03T08:15:24;9.10;95.40
48686;DHT22;34485;51.536;3.816;2023-04-03T08:17:50;9.60;99.90
48686;DHT22;34485;51.536;3.816;2023-04-03T08:22:43;10.00;93.10
48686;DHT22;34485;51.536;3.816;2023-04-03T08:27:35;9.70;93.00
48686;DHT22;34485;51.536;3.816;2023-04-03T08:30:00;10.00;99.90
48686;DHT22;34485;51.536;3.816;2023-04-03T08:32:26;10.20;99.90
48686;DHT22;34485;51.536;3.816;2023-04-03T08:34:52;10.30;92.50
48686;DHT22;34485;51.536;3.816;2023-04-03T08:37:18;10.40;93.70
48686;DHT22;34485;51.536;3.816;2023-04-03T08:39:45;10.80;91.90
48686;DHT22;34485;51.536;3.816;2023-04-03T08:50:30;10.90;91.40
48686;DHT22;34485;51.536;3.816;2023-04-03T08:52:58;10.70;94.00
48686;DHT22;34485;51.536;3.816;2023-04-03T08:58:09;11.40;99.90
48686;DHT22;34485;51.536;3.816;2023-04-03T09:00:50;11.10;99.90
48686;DHT22;34485;51.536;3.816;2023-04-03T09:11:24;9.90;99.90
48686;DHT22;34485;51.536;3.816;2023-04-03T09:16:29;10.60;99.90
48686;DHT22;34485;51.536;3.816;2023-04-03T09:21:38;11.40;99.90
48686;DHT22;34485;51.536;3.816;2023-04-03T09:24:05;11.50;85.20
48686;DHT22;34485;51.536;3.816;2023-04-03T09:44:44;11.30;99.90
48686;DHT22;34485;51.536;3.816;2023-04-03T09:57:15;11.20;86.20
48686;DHT22;34485;51.536;3.816;2023-04-03T10:02:28;11.70;84.30
48686;DHT22;34485;51.536;3.816;2023-04-03T10:04:56;11.90;91.80
48686;DHT22;34485;51.536;3.816;2023-04-03T10:07:40;11.90;82.80
48686;DHT22;34485;51.536;3.816;2023-04-03T10:12:42;11.90;99.90
48686;DHT22;34485;51.536;3.816;2023-04-03T10:15:16;11.80;83.30
48686;DHT22;34485;51.536;3.816;2023-04-03T10:20:27;11.80;99.90
48686;DHT22;34485;51.536;3.816;2023-04-03T10:28:18;12.20;97.90
48686;DHT22;34485;51.536;3.816;2023-04-03T10:47:40;12.60;80.50
48686;DHT22;34485;51.536;3.816;2023-04-03T10:58:01;12.80;99.90
48686;DHT22;34485;51.536;3.816;2023-04-03T11:00:44;12.80;99.90
48686;DHT22;34485;51.536;3.816;2023-04-03T11:03:17;12.20;99.90
48686;DHT22;34485;51.536;3.816;2023-04-03T11:05:52;12.00;96.80
48686;DHT22;34485;51.536;3.816;2023-04-03T11:08:28;11.70;92.10
48686;DHT22;34485;51.536;3.816;2023-04-03T11:16:21;12.10;99.90
48686;DHT22;34485;51.536;3.816;2023-04-03T11:19:11;12.30;99.90
48686;DHT22;34485;51.536;3.816;2023-04-03T11:24:26;11.90;99.90
48686;DHT22;34485;51.536;3.816;2023-04-03T11:26:54;12.10;99.90
48686;DHT22;34485;51.536;3.816;2023-04-03T11:29:24;11.50;75.60
48686;DHT22;34485;51.536;3.816;2023-04-03T11:32:09;11.50;99.90
48686;DHT22;34485;51.536;3.816;2023-04-03T11:34:58;11.60;96.80
48686;DHT22;34485;51.536;3.816;2023-04-03T11:37:35;11.50;92.00
48686;DHT22;34485;51.536;3.816;2023-04-03T11:42:40;11.30;99.90
48686;DHT22;34485;51.536;3.816;2023-04-03T11:47:51;11.10;78.50
48686;DHT22;34485;51.536;3.816;2023-04-03T11:53:29;11.00;77.30
48686;DHT22;34485;51.536;3.816;2023-04-03T11:55:59;10.90;75.30
48686;DHT22;34485;51.536;3.816;2023-04-03T11:58:26;10.80;74.80
48686;DHT22;34485;51.536;3.816;2023-04-03T12:01:02;10.80;76.00
48686;DHT22;34485;51.536;3.816;2023-04-03T12:35:24;10.50;95.50
48686;DHT22;34485;51.536;3.816;2023-04-03T12:40:46;10.30;71.50
48686;DHT22;34485;51.536;3.816;2023-04-03T12:43:29;10.20;71.60
48686;DHT22;34485;51.536;3.816;2023-04-03T12:51:05;10.10;73.20
48686;DHT22;34485;51.536;3.816;2023-04-03T12:53:34;10.20;73.40
48686;DHT22;34485;51.536;3.816;2023-04-03T12:58:48;10.30;99.90
48686;DHT22;34485;51.536;3.816;2023-04-03T13:01:16;10.30;99.90
48686;DHT22;34485;51.536;3.816;2023-04-03T13:03:45;10.30;99.90
48686;DHT22;34485;51.536;3.816;2023-04-03T13:06:39;10.40;99.90
48686;DHT22;34485;51.536;3.816;2023-04-03T13:09:14;10.40;98.60
48686;DHT22;34485;51.536;3.816;2023-04-03T13:11:43;10.50;99.90
48686;DHT22;34485;51.536;3.816;2023-04-03T13:14:17;10.40;99.20
48686;DHT22;34485;51.536;3.816;2023-04-03T13:17:03;10.40;73.60
48686;DHT22;34485;51.536;3.816;2023-04-03T13:19:29;10.50;81.00
48686;DHT22;34485;51.536;3.816;2023-04-03T13:24:28;10.50;93.60
48686;DHT22;34485;51.536;3.816;2023-04-03T13:26:56;10.50;94.90
48686;DHT22;34485;51.536;3.816;2023-04-03T13:29:31;10.40;96.30
48686;DHT22;34485;51.536;3.816;2023-04-03T13:31:58;10.40;96.20
48686;DHT22;34485;51.536;3.816;2023-04-03T13:49:22;10.30;99.90
48686;DHT22;34485;51.536;3.816;2023-04-03T13:51:49;10.10;65.90
48686;DHT22;34485;51.536;3.816;2023-04-03T13:54:23;10.10;69.20
48686;DHT22;34485;51.536;3.816;2023-04-03T13:56:56;10.20;72.30
48686;DHT22;34485;51.536;3.816;2023-04-03T14:04:56;10.10;62.20
48686;DHT22;34485;51.536;3.816;2023-04-03T14:07:25;10.10;62.10
48686;DHT22;34485;51.536;3.816;2023-04-03T14:09:52;10.10;67.40
48686;DHT22;34485;51.536;3.816;2023-04-03T14:12:29;10.10;65.90
48686;DHT22;34485;51.536;3.816;2023-04-03T14:14:56;10.10;64.50
48686;DHT22;34485;51.536;3.816;2023-04-03T14:19:50;10.20;61.90
48686;DHT22;34485;51.536;3.816;2023-04-03T14:22:25;10.20;63.10
48686;DHT22;34485;51.536;3.816;2023-04-03T14:24:52;10.20;63.00
48686;DHT22;34485;51.536;3.816;2023-04-03T14:27:25;10.20;67.00
48686;DHT22;34485;51.536;3.816;2023-04-03T14:29:52;10.30;65.70
48686;DHT22;34485;51.536;3.816;2023-04-03T14:32:21;10.30;63.60
48686;DHT22;34485;51.536;3.816;2023-04-03T14:37:17;10.50;99.90
48686;DHT22;34485;51.536;3.816;2023-04-03T14:39:43;10.50;99.90
48686;DHT22;34485;51.536;3.816;2023-04-03T14:42:13;10.50;99.80
48686;DHT22;34485;51.536;3.816;2023-04-03T14:44:39;10.40;64.30
48686;DHT22;34485;51.536;3.816;2023-04-03T15:04:15;10.40;99.90
48686;DHT22;34485;51.536;3.816;2023-04-03T15:06:41;10.20;63.80
48686;DHT22;34485;51.536;3.816;2023-04-03T15:09:27;10.40;69.80
48686;DHT22;34485;51.536;3.816;2023-04-03T15:38:42;10.20;64.90
48686;DHT22;34485;51.536;3.816;2023-04-03T15:41:07;10.10;67.70
48686;DHT22;34485;51.536;3.816;2023-04-03T15:43:33;10.00;64.20
48686;DHT22;34485;51.536;3.816;2023-04-03T15:46:00;9.80;66.00
48686;DHT22;34485;51.536;3.816;2023-04-03T15:48:27;9.80;67.70
48686;DHT22;34485;51.536;3.816;2023-04-03T15:50:53;9.80;71.00
48686;DHT22;34485;51.536;3.816;2023-04-03T15:53:19;9.90;69.10
48686;DHT22;34485;51.536;3.816;2023-04-03T15:55:45;9.80;66.50
48686;DHT22;34485;51.536;3.816;2023-04-03T15:58:11;9.80;69.30
48686;DHT22;34485;51.536;3.816;2023-04-03T16:00:37;9.80;69.80
48686;DHT22;34485;51.536;3.816;2023-04-03T16:03:12;9.80;68.80
48686;DHT22;34485;51.536;3.816;2023-04-03T16:05:38;9.70;68.30
48686;DHT22;34485;51.536;3.816;2023-04-03T16:08:05;9.70;67.20
48686;DHT22;34485;51.536;3.816;2023-04-03T16:10:33;9.70;74.50
48686;DHT22;34485;51.536;3.816;2023-04-03T16:12:59;9.70;70.60
48686;DHT22;34485;51.536;3.816;2023-04-03T16:15:25;9.70;68.50
48686;DHT22;34485;51.536;3.816;2023-04-03T16:17:52;9.60;71.00
48686;DHT22;34485;51.536;3.816;2023-04-03T16:20:18;9.70;72.80
48686;DHT22;34485;51.536;3.816;2023-04-03T16:22:45;9.60;71.00
48686;DHT22;34485;51.536;3.816;2023-04-03T16:25:11;9.60;71.50
48686;DHT22;34485;51.536;3.816;2023-04-03T16:27:37;9.60;73.40
48686;DHT22;34485;51.536;3.816;2023-04-03T16:30:05;9.60;71.70
48686;DHT22;34485;51.536;3.816;2023-04-03T16:32:32;9.50;72.10
48686;DHT22;34485;51.536;3.816;2023-04-03T16:34:58;9.50;72.60
48686;DHT22;34485;51.536;3.816;2023-04-03T16:37:24;9.50;72.30
48686;DHT22;34485;51.536;3.816;2023-04-03T16:39:50;9.40;70.40
48686;DHT22;34485;51.536;3.816;2023-04-03T16:42:16;9.40;77.10
48686;DHT22;34485;51.536;3.816;2023-04-03T16:44:41;9.30;72.60
48686;DHT22;34485;51.536;3.816;2023-04-03T16:47:07;9.30;76.40
48686;DHT22;34485;51.536;3.816;2023-04-03T16:49:34;9.20;74.20
48686;DHT22;34485;51.536;3.816;2023-04-03T16:52:01;9.20;73.20
48686;DHT22;34485;51.536;3.816;2023-04-03T16:54:28;9.10;73.60
48686;DHT22;34485;51.536;3.816;2023-04-03T16:56:54;9.10;72.40
48686;DHT22;34485;51.536;3.816;2023-04-03T16:59:19;9.00;75.20
48686;DHT22;34485;51.536;3.816;2023-04-03T17:01:45;9.00;76.70
48686;DHT22;34485;51.536;3.816;2023-04-03T17:04:11;9.00;74.40
48686;DHT22;34485;51.536;3.816;2023-04-03T17:06:38;8.90;79.20
48686;DHT22;34485;51.536;3.816;2023-04-03T17:09:05;8.80;72.60
48686;DHT22;34485;51.536;3.816;2023-04-03T17:11:31;8.80;73.90
48686;DHT22;34485;51.536;3.816;2023-04-03T17:13:57;8.70;79.30
48686;DHT22;34485;51.536;3.816;2023-04-03T17:16:23;8.70;73.00
48686;DHT22;34485;51.536;3.816;2023-04-03T17:18:50;8.70;74.20
48686;DHT22;34485;51.536;3.816;2023-04-03T17:21:16;8.60;76.30
48686;DHT22;34485;51.536;3.816;2023-04-03T17:23:44;8.60;79.30
48686;DHT22;34485;51.536;3.816;2023-04-03T17:26:11;8.50;79.10
48686;DHT22;34485;51.536;3.816;2023-04-03T17:28:37;8.50;74.30
48686;DHT22;34485;51.536;3.816;2023-04-03T17:31:05;8.40;76.20
48686;DHT22;34485;51.536;3.816;2023-04-03T17:33:31;8.40;82.90
48686;DHT22;34485;51.536;3.816;2023-04-03T17:35:57;8.30;78.90
48686;DHT22;34485;51.536;3.816;2023-04-03T17:38:23;8.30;81.30
48686;DHT22;34485;51.536;3.816;2023-04-03T17:40:49;8.20;80.10
48686;DHT22;34485;51.536;3.816;2023-04-03T17:43:15;8.20;79.20
48686;DHT22;34485;51.536;3.816;2023-04-03T17:45:41;8.20;82.60
48686;DHT22;34485;51.536;3.816;2023-04-03T17:48:06;8.10;84.10
48686;DHT22;34485;51.536;3.816;2023-04-03T17:50:32;8.00;84.50
48686;DHT22;34485;51.536;3.816;2023-04-03T17:52:59;8.00;86.00
48686;DHT22;34485;51.536;3.816;2023-04-03T17:55:24;7.90;84.80
48686;DHT22;34485;51.536;3.816;2023-04-03T17:57:50;7.90;82.30
48686;DHT22;34485;51.536;3.816;2023-04-03T18:00:16;7.80;83.80
48686;DHT22;34485;51.536;3.816;2023-04-03T18:02:42;7.80;84.20
48686;DHT22;34485;51.536;3.816;2023-04-03T18:05:08;7.70;83.60
48686;DHT22;34485;51.536;3.816;2023-04-03T18:07:39;7.70;83.80
48686;DHT22;34485;51.536;3.816;2023-04-03T18:10:06;7.70;84.60
48686;DHT22;34485;51.536;3.816;2023-04-03T18:12:34;7.60;82.90
48686;DHT22;34485;51.536;3.816;2023-04-03T18:15:00;7.60;83.00
48686;DHT22;34485;51.536;3.816;2023-04-03T18:17:27;7.60;84.30
48686;DHT22;34485;51.536;3.816;2023-04-03T18:19:53;7.50;83.40
48686;DHT22;34485;51.536;3.816;2023-04-03T18:22:20;7.50;86.20
48686;DHT22;34485;51.536;3.816;2023-04-03T18:24:50;7.50;87.30
48686;DHT22;34485;51.536;3.816;2023-04-03T18:27:19;7.40;89.40
48686;DHT22;34485;51.536;3.816;2023-04-03T18:29:48;7.30;87.70
48686;DHT22;34485;51.536;3.816;2023-04-03T18:32:16;7.20;89.60
48686;DHT22;34485;51.536;3.816;2023-04-03T18:34:42;7.20;90.20
48686;DHT22;34485;51.536;3.816;2023-04-03T18:37:08;7.10;90.00
48686;DHT22;34485;51.536;3.816;2023-04-03T18:39:33;7.10;89.00
48686;DHT22;34485;51.536;3.816;2023-04-03T18:42:04;7.10;89.30
48686;DHT22;34485;51.536;3.816;2023-04-03T18:44:32;7.00;90.00
48686;DHT22;34485;51.536;3.816;2023-04-03T18:46:57;7.00;90.10
48686;DHT22;34485;51.536;3.816;2023-04-03T18:49:27;7.00;90.20
48686;DHT22;34485;51.536;3.816;2023-04-03T18:51:54;6.90;91.00
48686;DHT22;34485;51.536;3.816;2023-04-03T18:54:19;6.80;91.70
48686;DHT22;34485;51.536;3.816;2023-04-03T18:56:45;6.80;91.90
48686;DHT22;34485;51.536;3.816;2023-04-03T18:59:12;6.70;92.20
48686;DHT22;34485;51.536;3.816;2023-04-03T19:01:37;6.70;92.50
48686;DHT22;34485;51.536;3.816;2023-04-03T19:04:03;6.70;92.30
48686;DHT22;34485;51.536;3.816;2023-04-03T19:06:29;6.70;92.70
48686;DHT22;34485;51.536;3.816;2023-04-03T19:08:56;6.70;92.70
48686;DHT22;34485;51.536;3.816;2023-04-03T19:11:22;6.70;92.30
48686;DHT22;34485;51.536;3.816;2023-04-03T19:13:47;6.70;92.70
48686;DHT22;34485;51.536;3.816;2023-04-03T19:16:13;6.70;92.20
48686;DHT22;34485;51.536;3.816;2023-04-03T19:18:39;6.70;92.40
48686;DHT22;34485;51.536;3.816;2023-04-03T19:21:04;6.70;92.30
48686;DHT22;34485;51.536;3.816;2023-04-03T19:23:30;6.60;93.00
48686;DHT22;34485;51.536;3.816;2023-04-03T19:25:58;6.60;91.90
48686;DHT22;34485;51.536;3.816;2023-04-03T19:28:24;6.60;93.10
48686;DHT22;34485;51.536;3.816;2023-04-03T19:30:50;6.50;92.70
48686;DHT22;34485;51.536;3.816;2023-04-03T19:33:16;6.50;93.40
48686;DHT22;34485;51.536;3.816;2023-04-03T19:35:41;6.50;93.70
48686;DHT22;34485;51.536;3.816;2023-04-03T19:38:07;6.40;93.30
48686;DHT22;34485;51.536;3.816;2023-04-03T19:40:32;6.40;94.30
48686;DHT22;34485;51.536;3.816;2023-04-03T19:43:00;6.30;95.00
48686;DHT22;34485;51.536;3.816;2023-04-03T19:45:25;6.20;94.90
48686;DHT22;34485;51.536;3.816;2023-04-03T19:47:52;6.20;94.50
48686;DHT22;34485;51.536;3.816;2023-04-03T19:50:17;6.20;94.50
48686;DHT22;34485;51.536;3.816;2023-04-03T19:52:43;6.10;94.70
48686;DHT22;34485;51.536;3.816;2023-04-03T19:55:09;6.10;94.30
48686;DHT22;34485;51.536;3.816;2023-04-03T19:57:35;6.20;94.60
48686;DHT22;34485;51.536;3.816;2023-04-03T20:00:00;6.10;94.50